Time;durP1;ratioP1;P1;durP2;ratioP2;P2;SDS_P1;SDS_P2;PMS_P1;PMS_P2;Temp;Humidity;BMP_temperature;BMP_pressure;BME280_temperature;BME280_humidity;BME280_pressure;Samples;Min_cycle;Max_cycle;Signal;HPM_P1;HPM_P2
2022/05/24 00:00:59;;;;;;;;;;;;;;;;;;4975895;28;20267;-73
2022/05/24 00:03:25;;;;;;;;;;;;;;;;;;4975885;28;19960;-73
2022/05/24 00:05:52;;;;;;;;;;;;;;;;;;4958669;28;19926;-73
2022/05/24 00:08:18;;;;;;;;;;;;;;;;;;4975466;28;20485;-73
2022/05/24 00:10:44;;;;;;;;;;;;;;;;;;4975798;28;19906;-73
2022/05/24 00:13:11;;;;;;;;;;;;;;;;;;4975461;28;19953;-73
2022/05/24 00:15:38;;;;;;;;;;;;;;;;;;4975342;28;19906;-73
2022/05/24 00:18:04;;;;;;;;;;;;;;;;;;4975384;28;19906;-73
2022/05/24 00:20:30;;;;;;;;;;;;;;;;;;4975315;28;20286;-73
2022/05/24 00:22:57;;;;;;;;;;;;;;;;;;4975334;28;20286;-72
2022/05/24 00:25:23;;;;;;;;;;;;;;;;;;4975662;28;19997;-72
2022/05/24 00:27:48;;;;;;;;;;;;;;;;;;4975163;28;19996;-73
2022/05/24 00:30:14;;;;;;;;;;;;;;;;;;4957786;28;19906;-73
2022/05/24 00:32:40;;;;;;;;;;;;;;;;;;4975150;28;19912;-73
2022/05/24 00:35:06;;;;;;;;;;;;;;;;;;4975401;28;19906;-73
2022/05/24 00:37:32;;;;;;;;;;;;;;;;;;4975101;28;20275;-73
2022/05/24 00:39:58;;;;;;;;;;;;;;;;;;4975032;28;19914;-73
2022/05/24 00:42:24;;;;;;;;;;;;;;;;;;4975314;28;20275;-73
2022/05/24 00:44:50;;;;;;;;;;;;;;;;;;4975382;28;19992;-74
2022/05/24 00:47:16;;;;;;;;;;;;;;;;;;4974964;28;20367;-73
2022/05/24 00:49:41;;;;;;;;;;;;;;;;;;4974970;28;19941;-73
2022/05/24 00:52:08;;;;;;;;;;;;;;;;;;4974477;28;20267;-73
2022/05/24 00:54:34;;;;;;;;;;;;;;;;;;4974936;28;19956;-73
2022/05/24 00:57:00;;;;;;;;;;;;;;;;;;4975216;28;20006;-72
2022/05/24 00:59:26;;;;;;;;;;;;;;;;;;4974461;28;20453;-73
2022/05/24 01:01:51;;;;;;;;;;;;;;;;;;4974838;28;19910;-73
2022/05/24 01:04:19;;;;;;;;;;;;;;;;;;4975125;28;19957;-73
2022/05/24 01:06:45;;;;;;;;;;;;;;;;;;4974741;28;19906;-73
2022/05/24 01:09:11;;;;;;;;;;;;;;;;;;4974766;28;19910;-73
2022/05/24 01:11:37;;;;;;;;;;;;;;;;;;4974739;28;19913;-72
2022/05/24 01:14:04;;;;;;;;;;;;;;;;;;4974742;28;19906;-73
2022/05/24 01:16:30;;;;;;;;;;;;;;;;;;4974797;28;19906;-73
2022/05/24 01:18:56;;;;;;;;;;;;;;;;;;4975256;28;19941;-73
2022/05/24 01:21:22;;;;;;;;;;;;;;;;;;4957265;28;20374;-73
2022/05/24 01:23:48;;;;;;;;;;;;;;;;;;4974627;28;19910;-73
2022/05/24 01:26:14;;;;;;;;;;;;;;;;;;4957255;28;19945;-74
2022/05/24 01:28:40;;;;;;;;;;;;;;;;;;4974525;28;19956;-73
2022/05/24 01:31:06;;;;;;;;;;;;;;;;;;4975103;28;19910;-73
2022/05/24 01:36:16;;;;;;;;;;;;;;;;;;4974341;28;19962;-73
2022/05/24 01:38:42;;;;;;;;;;;;;;;;;;4974782;28;20004;-73
2022/05/24 01:41:08;;;;;;;;;;;;;;;;;;4974474;28;20367;-73
2022/05/24 01:43:34;;;;;;;;;;;;;;;;;;4974476;28;19906;-72
2022/05/24 01:46:00;;;;;;;;;;;;;;;;;;4974701;28;19913;-73
2022/05/24 01:48:26;;;;;;;;;;;;;;;;;;4974359;28;20291;-72
2022/05/24 01:50:52;;;;;;;;;;;;;;;;;;4974960;28;20303;-73
2022/05/24 01:53:18;;;;;;;;;;;;;;;;;;4974386;28;19948;-73
2022/05/24 01:55:44;;;;;;;;;;;;;;;;;;4974901;28;19906;-72
2022/05/24 01:58:10;;;;;;;;;;;;;;;;;;4974135;28;19957;-73
2022/05/24 02:00:35;;;;;;;;;;;;;;;;;;4974879;28;20355;-72
2022/05/24 02:03:01;;;;;;;;;;;;;;;;;;4976369;28;19956;-72
2022/05/24 02:05:27;;;;;;;;;;;;;;;;;;4977816;28;20299;-72
2022/05/24 02:07:53;;;;;;;;;;;;;;;;;;4978269;28;19910;-74
2022/05/24 02:10:19;;;;;;;;;;;;;;;;;;4977690;28;20013;-72
2022/05/24 02:12:45;;;;;;;;;;;;;;;;;;4960318;28;19906;-73
2022/05/24 02:15:11;;;;;;;;;;;;;;;;;;4977556;28;20279;-73
2022/05/24 02:17:39;;;;;;;;;;;;;;;;;;4977590;28;19906;-73
2022/05/24 02:20:04;;;;;;;;;;;;;;;;;;4977542;28;19906;-72
2022/05/24 02:22:30;;;;;;;;;;;;;;;;;;4977738;28;19993;-73
2022/05/24 02:24:56;;;;;;;;;;;;;;;;;;4977711;28;19912;-73
2022/05/24 02:27:22;;;;;;;;;;;;;;;;;;4977873;28;19910;-74
2022/05/24 02:29:48;;;;;;;;;;;;;;;;;;4977375;28;19933;-72
2022/05/24 02:32:14;;;;;;;;;;;;;;;;;;4977352;28;19906;-72
2022/05/24 02:34:40;;;;;;;;;;;;;;;;;;4977535;28;19906;-73
2022/05/24 02:37:06;;;;;;;;;;;;;;;;;;4977222;28;20330;-73
2022/05/24 02:41:28;;;;;;;;;;;;;;;;;;4977418;28;19949;-73
2022/05/24 02:42:17;;;;;;;;;;;;;;;;;;4976727;28;19913;-74
2022/05/24 02:44:43;;;;;;;;;;;;;;;;;;4977083;28;19906;-72
2022/05/24 02:47:09;;;;;;;;;;;;;;;;;;4977260;28;19933;-72
2022/05/24 02:49:35;;;;;;;;;;;;;;;;;;4977315;28;20000;-72
2022/05/24 02:52:01;;;;;;;;;;;;;;;;;;4977023;28;19956;-72
2022/05/24 02:54:27;;;;;;;;;;;;;;;;;;4977497;28;19906;-74
2022/05/24 02:56:53;;;;;;;;;;;;;;;;;;4977141;28;19913;-73
2022/05/24 02:59:19;;;;;;;;;;;;;;;;;;4976711;28;20283;-73
2022/05/24 03:01:45;;;;;;;;;;;;;;;;;;4976806;28;19949;-73
2022/05/24 03:04:10;;;;;;;;;;;;;;;;;;4977011;28;19961;-74
2022/05/24 03:09:36;;;;;;;;;;;;;;;;;;4976459;28;20004;-73
2022/05/24 03:14:47;;;;;;;;;;;;;;;;;;4975887;28;19956;-73
2022/05/24 03:17:13;;;;;;;;;;;;;;;;;;4959078;28;19945;-73
2022/05/24 03:19:39;;;;;;;;;;;;;;;;;;4976406;28;20367;-73
2022/05/24 03:22:05;;;;;;;;;;;;;;;;;;4976420;28;19906;-73
2022/05/24 03:24:31;;;;;;;;;;;;;;;;;;4976334;28;19949;-73
2022/05/24 03:26:56;;;;;;;;;;;;;;;;;;4976512;28;19952;-74
2022/05/24 03:29:22;;;;;;;;;;;;;;;;;;4976549;28;19906;-73
2022/05/24 03:31:48;;;;;;;;;;;;;;;;;;4976816;28;19910;-73
2022/05/24 03:34:14;;;;;;;;;;;;;;;;;;4976179;28;20385;-73
2022/05/24 03:36:40;;;;;;;;;;;;;;;;;;4958769;28;20351;-72
2022/05/24 03:39:07;;;;;;;;;;;;;;;;;;4976367;28;19906;-73
2022/05/24 03:41:33;;;;;;;;;;;;;;;;;;4976054;28;19906;-73
2022/05/24 03:43:59;;;;;;;;;;;;;;;;;;4976273;28;20004;-72
2022/05/24 03:46:25;;;;;;;;;;;;;;;;;;4976213;28;20001;-73
2022/05/24 03:48:51;;;;;;;;;;;;;;;;;;4976363;28;19910;-73
2022/05/24 03:51:17;;;;;;;;;;;;;;;;;;4975879;28;19957;-73
2022/05/24 03:53:44;;;;;;;;;;;;;;;;;;4975869;28;19910;-73
2022/05/24 03:56:11;;;;;;;;;;;;;;;;;;4958233;28;19906;-74
2022/05/24 03:58:37;;;;;;;;;;;;;;;;;;4975559;28;19918;-71
2022/05/24 04:01:03;;;;;;;;;;;;;;;;;;4975947;28;20282;-72
2022/05/24 04:03:29;;;;;;;;;;;;;;;;;;4975644;28;20291;-73
2022/05/24 04:05:55;;;;;;;;;;;;;;;;;;4958253;28;19906;-73
2022/05/24 04:08:24;;;;;;;;;;;;;;;;;;4976029;28;19916;-73
2022/05/24 04:10:50;;;;;;;;;;;;;;;;;;4975490;28;19912;-73
2022/05/24 04:13:16;;;;;;;;;;;;;;;;;;4975481;28;20004;-73
2022/05/24 04:15:42;;;;;;;;;;;;;;;;;;4975779;28;20338;-73
2022/05/24 04:18:08;;;;;;;;;;;;;;;;;;4957982;28;19973;-72
2022/05/24 04:20:34;;;;;;;;;;;;;;;;;;4975363;28;19906;-72
2022/05/24 04:22:59;;;;;;;;;;;;;;;;;;4975312;28;20001;-73
2022/05/24 04:25:25;;;;;;;;;;;;;;;;;;4957892;28;19906;-73
2022/05/24 04:27:51;;;;;;;;;;;;;;;;;;4975735;28;19953;-73
2022/05/24 04:30:17;;;;;;;;;;;;;;;;;;4957891;28;19912;-73
2022/05/24 04:32:43;;;;;;;;;;;;;;;;;;4957833;28;20336;-73
2022/05/24 04:35:09;;;;;;;;;;;;;;;;;;4975673;28;20371;-73
2022/05/24 04:37:35;;;;;;;;;;;;;;;;;;4975100;28;20290;-73
2022/05/24 04:40:01;;;;;;;;;;;;;;;;;;4975636;28;20365;-73
2022/05/24 04:42:27;;;;;;;;;;;;;;;;;;4975379;28;19906;-74
2022/05/24 04:44:53;;;;;;;;;;;;;;;;;;4975602;28;19906;-73
2022/05/24 04:47:18;;;;;;;;;;;;;;;;;;4957652;28;19914;-73
2022/05/24 04:49:46;;;;;;;;;;;;;;;;;;4974960;28;19906;-73
2022/05/24 04:52:12;;;;;;;;;;;;;;;;;;4975138;28;19924;-72
2022/05/24 04:54:38;;;;;;;;;;;;;;;;;;4975230;28;20001;-73
2022/05/24 04:57:04;;;;;;;;;;;;;;;;;;4974856;28;19906;-72
2022/05/24 04:59:30;;;;;;;;;;;;;;;;;;4974413;28;19964;-72
2022/05/24 05:01:56;;;;;;;;;;;;;;;;;;4975402;28;19948;-73
2022/05/24 05:04:24;;;;;;;;;;;;;;;;;;4974836;28;19907;-73
2022/05/24 05:06:50;;;;;;;;;;;;;;;;;;4975033;28;19952;-72
2022/05/24 05:09:16;;;;;;;;;;;;;;;;;;4957437;28;19945;-73
2022/05/24 05:11:41;;;;;;;;;;;;;;;;;;4975029;28;19914;-73
2022/05/24 05:14:07;;;;;;;;;;;;;;;;;;4975007;28;20371;-73
2022/05/24 05:16:33;;;;;;;;;;;;;;;;;;4975194;28;19997;-72
2022/05/24 05:18:59;;;;;;;;;;;;;;;;;;4974708;28;19906;-73
2022/05/24 05:21:25;;;;;;;;;;;;;;;;;;4975257;28;20390;-72
2022/05/24 05:23:52;;;;;;;;;;;;;;;;;;4974971;28;20110;-73
2022/05/24 05:26:18;;;;;;;;;;;;;;;;;;4974637;28;19906;-73
2022/05/24 05:28:44;;;;;;;;;;;;;;;;;;4975038;28;20361;-73
2022/05/24 05:31:26;;;;;;;;;;;;;;;;;;4957243;28;20005;-72
2022/05/24 05:33:52;;;;;;;;;;;;;;;;;;4974599;28;20430;-73
2022/05/24 05:36:18;;;;;;;;;;;;;;;;;;4974555;28;19910;-73
2022/05/24 05:38:46;;;;;;;;;;;;;;;;;;4978067;28;19910;-73
2022/05/24 05:41:11;;;;;;;;;;;;;;;;;;4978291;28;19997;-73
2022/05/24 05:43:37;;;;;;;;;;;;;;;;;;4960777;28;19945;-73
2022/05/24 05:46:04;;;;;;;;;;;;;;;;;;4978029;28;19919;-72
2022/05/24 05:48:30;;;;;;;;;;;;;;;;;;4978557;28;19957;-73
2022/05/24 05:50:55;;;;;;;;;;;;;;;;;;4978061;28;19913;-74
2022/05/24 05:53:21;;;;;;;;;;;;;;;;;;4978038;28;20343;-73
2022/05/24 05:55:47;;;;;;;;;;;;;;;;;;4977992;28;20009;-73
2022/05/24 05:58:13;;;;;;;;;;;;;;;;;;4977890;28;19956;-73
2022/05/24 06:00:39;;;;;;;;;;;;;;;;;;4977899;28;20359;-73
2022/05/24 06:03:05;;;;;;;;;;;;;;;;;;4977869;28;19913;-73
2022/05/24 06:05:31;;;;;;;;;;;;;;;;;;4977812;28;20327;-73
2022/05/24 06:07:57;;;;;;;;;;;;;;;;;;4977686;28;19910;-73
2022/05/24 06:10:22;;;;;;;;;;;;;;;;;;4960350;28;19949;-74
2022/05/24 06:12:48;;;;;;;;;;;;;;;;;;4977657;28;19916;-74
2022/05/24 06:15:14;;;;;;;;;;;;;;;;;;4977556;28;19906;-73
2022/05/24 06:17:40;;;;;;;;;;;;;;;;;;4977920;28;19912;-73
2022/05/24 06:20:06;;;;;;;;;;;;;;;;;;4977838;28;20378;-74
2022/05/24 06:22:32;;;;;;;;;;;;;;;;;;4978085;28;19910;-73
2022/05/24 06:24:58;;;;;;;;;;;;;;;;;;4977449;28;19929;-74
2022/05/24 06:27:25;;;;;;;;;;;;;;;;;;4977345;28;19914;-73
2022/05/24 06:29:50;;;;;;;;;;;;;;;;;;4977717;28;19906;-73
2022/05/24 06:32:16;;;;;;;;;;;;;;;;;;4977409;28;20045;-74
2022/05/24 06:34:42;;;;;;;;;;;;;;;;;;4977382;28;20017;-74
2022/05/24 06:37:08;;;;;;;;;;;;;;;;;;4977555;28;19910;-74
2022/05/24 06:39:34;;;;;;;;;;;;;;;;;;4977210;28;20425;-74
2022/05/24 06:42:00;;;;;;;;;;;;;;;;;;4977488;28;20001;-74
2022/05/24 06:44:27;;;;;;;;;;;;;;;;;;4977145;28;19929;-74
2022/05/24 06:46:53;;;;;;;;;;;;;;;;;;4977646;28;19906;-72
2022/05/24 06:49:19;;;;;;;;;;;;;;;;;;4976194;28;19916;-74
2022/05/24 06:51:45;;;;;;;;;;;;;;;;;;4977302;28;19910;-73
2022/05/24 06:54:10;;;;;;;;;;;;;;;;;;4958108;28;19921;-74
2022/05/24 06:56:36;;;;;;;;;;;;;;;;;;4976932;28;19956;-73
2022/05/24 07:04:32;;;;;;;;;;;;;;;;;;4976557;28;19913;-73
2022/05/24 07:06:57;;;;;;;;;;;;;;;;;;4976690;28;20283;-74
2022/05/24 07:09:28;;;;;;;;;;;;;;;;;;4976990;28;19906;-73
2022/05/24 07:11:54;;;;;;;;;;;;;;;;;;4977005;28;19941;-74
2022/05/24 07:14:20;;;;;;;;;;;;;;;;;;4976874;28;20347;-72
2022/05/24 07:16:46;;;;;;;;;;;;;;;;;;4959187;28;19906;-74
2022/05/24 07:19:12;;;;;;;;;;;;;;;;;;4976804;28;20282;-73
2022/05/24 07:21:38;;;;;;;;;;;;;;;;;;4976479;28;19906;-74
2022/05/24 07:24:04;;;;;;;;;;;;;;;;;;4976434;28;19913;-73
2022/05/24 07:26:30;;;;;;;;;;;;;;;;;;4976884;28;20351;-73
2022/05/24 07:28:56;;;;;;;;;;;;;;;;;;4976259;28;19984;-72
2022/05/24 07:31:21;;;;;;;;;;;;;;;;;;4976532;28;19906;-74
2022/05/24 07:33:48;;;;;;;;;;;;;;;;;;4976506;28;19912;-73
2022/05/24 07:36:14;;;;;;;;;;;;;;;;;;4958653;28;19906;-73
2022/05/24 07:38:40;;;;;;;;;;;;;;;;;;4976417;28;20005;-72
2022/05/24 07:46:35;;;;;;;;;;;;;;;;;;4975603;28;19913;-72
2022/05/24 07:49:01;;;;;;;;;;;;;;;;;;4975630;28;19910;-73
2022/05/24 07:51:27;;;;;;;;;;;;;;;;;;4974231;28;19916;-71
2022/05/24 07:53:53;;;;;;;;;;;;;;;;;;4974935;28;20294;-79
2022/05/24 07:56:19;;;;;;;;;;;;;;;;;;4975697;28;19914;-75
2022/05/24 07:58:45;;;;;;;;;;;;;;;;;;4975555;28;19925;-73
2022/05/24 08:01:11;;;;;;;;;;;;;;;;;;4974282;28;19913;-75
2022/05/24 08:03:38;;;;;;;;;;;;;;;;;;4976138;28;20310;-76
2022/05/24 08:06:04;;;;;;;;;;;;;;;;;;4973966;28;19918;-73
2022/05/24 08:08:30;;;;;;;;;;;;;;;;;;4975975;28;19910;-76
2022/05/24 08:10:56;;;;;;;;;;;;;;;;;;4975548;28;20393;-74
2022/05/24 08:13:22;;;;;;;;;;;;;;;;;;4973401;28;19917;-75
2022/05/24 08:15:48;;;;;;;;;;;;;;;;;;4957378;28;19936;-74
2022/05/24 08:18:14;;;;;;;;;;;;;;;;;;4973329;28;20378;-74
2022/05/24 08:20:40;;;;;;;;;;;;;;;;;;4975385;28;19914;-76
2022/05/24 08:23:06;;;;;;;;;;;;;;;;;;4975617;28;19996;-76
2022/05/24 08:25:33;;;;;;;;;;;;;;;;;;4975356;28;19944;-77
2022/05/24 08:28:02;;;;;;;;;;;;;;;;;;4975491;28;19914;-78
2022/05/24 08:30:28;;;;;;;;;;;;;;;;;;4975371;28;20393;-75
2022/05/24 08:32:56;;;;;;;;;;;;;;;;;;4973703;28;19949;-78
2022/05/24 08:35:22;;;;;;;;;;;;;;;;;;4974220;28;19913;-75
2022/05/24 08:37:47;;;;;;;;;;;;;;;;;;4971945;28;19909;-73
2022/05/24 08:40:13;;;;;;;;;;;;;;;;;;4970508;28;19910;-72
2022/05/24 08:42:39;;;;;;;;;;;;;;;;;;4973342;28;19917;-73
2022/05/24 08:50:35;;;;;;;;;;;;;;;;;;4972233;28;19917;-75
2022/05/24 08:53:00;;;;;;;;;;;;;;;;;;4968022;28;19997;-73
2022/05/24 08:55:26;;;;;;;;;;;;;;;;;;4955629;29;19942;-75
2022/05/24 08:57:52;;;;;;;;;;;;;;;;;;4955496;29;19937;-76
2022/05/24 09:00:18;;;;;;;;;;;;;;;;;;4938354;29;19906;-73
2022/05/24 09:02:45;;;;;;;;;;;;;;;;;;4938291;29;19906;-74
2022/05/24 09:05:11;;;;;;;;;;;;;;;;;;4972857;28;19921;-77
2022/05/24 09:07:37;;;;;;;;;;;;;;;;;;4956358;28;20260;-75
2022/05/24 09:10:03;;;;;;;;;;;;;;;;;;4973433;28;19913;-77
2022/05/24 09:12:29;;;;;;;;;;;;;;;;;;4955064;28;19969;-77
2022/05/24 09:14:55;;;;;;;;;;;;;;;;;;4979031;28;20004;-76
2022/05/24 09:17:23;;;;;;;;;;;;;;;;;;4961330;28;19906;-75
2022/05/24 09:19:49;;;;;;;;;;;;;;;;;;4978931;28;20365;-75
2022/05/24 09:22:16;;;;;;;;;;;;;;;;;;4978703;28;19964;-76
2022/05/24 09:24:42;;;;;;;;;;;;;;;;;;4977648;28;19906;-75
2022/05/24 09:27:08;;;;;;;;;;;;;;;;;;4961157;28;20344;-76
2022/05/24 09:29:35;;;;;;;;;;;;;;;;;;4978753;28;19906;-76
2022/05/24 09:32:01;;;;;;;;;;;;;;;;;;4978688;28;19953;-75
2022/05/24 09:34:29;;;;;;;;;;;;;;;;;;4978853;28;19906;-76
2022/05/24 09:36:55;;;;;;;;;;;;;;;;;;4954076;29;20412;-78
2022/05/24 09:39:21;;;;;;;;;;;;;;;;;;4941835;29;20018;-82
2022/05/24 09:41:47;;;;;;;;;;;;;;;;;;4943760;28;19914;-74
2022/05/24 09:44:13;;;;;;;;;;;;;;;;;;4975982;28;19953;-82
2022/05/24 09:46:39;;;;;;;;;;;;;;;;;;4960661;28;19917;-83
2022/05/24 09:49:07;;;;;;;;;;;;;;;;;;4978626;28;19909;-80
2022/05/24 09:51:33;;;;;;;;;;;;;;;;;;4960691;28;20388;-75
2022/05/24 09:53:59;;;;;;;;;;;;;;;;;;4977039;28;20004;-75
2022/05/24 09:56:25;;;;;;;;;;;;;;;;;;4960547;28;19906;-85
2022/05/24 09:58:51;;;;;;;;;;;;;;;;;;4960451;28;20298;-82
2022/05/24 10:01:17;;;;;;;;;;;;;;;;;;4977965;28;19906;-76
2022/05/24 10:03:43;;;;;;;;;;;;;;;;;;4975747;28;19917;-77
2022/05/24 10:06:09;;;;;;;;;;;;;;;;;;4977871;28;19935;-78
2022/05/24 10:08:35;;;;;;;;;;;;;;;;;;4975553;28;19914;-78
2022/05/24 10:11:01;;;;;;;;;;;;;;;;;;4959025;28;20435;-80
2022/05/24 10:13:27;;;;;;;;;;;;;;;;;;4959574;28;19937;-80
2022/05/24 10:15:54;;;;;;;;;;;;;;;;;;4977189;28;19913;-78
2022/05/24 10:18:20;;;;;;;;;;;;;;;;;;4959892;28;19913;-77
2022/05/24 10:20:49;;;;;;;;;;;;;;;;;;4960191;28;20274;-78
2022/05/24 10:23:15;;;;;;;;;;;;;;;;;;4959896;28;19910;-79
2022/05/24 10:25:41;;;;;;;;;;;;;;;;;;4974350;28;20001;-74
2022/05/24 10:28:06;;;;;;;;;;;;;;;;;;4975663;28;20355;-79
2022/05/24 10:30:32;;;;;;;;;;;;;;;;;;4961601;28;19911;-78
2022/05/24 10:38:29;;;;;;;;;;;;;;;;;;4976362;28;19929;-73
2022/05/24 10:40:55;;;;;;;;;;;;;;;;;;4977178;28;19985;-74
2022/05/24 10:43:21;;;;;;;;;;;;;;;;;;4977227;28;20398;-73
2022/05/24 10:45:50;;;;;;;;;;;;;;;;;;4977213;28;19985;-72
2022/05/24 10:48:16;;;;;;;;;;;;;;;;;;4977561;28;19933;-73
2022/05/24 10:50:43;;;;;;;;;;;;;;;;;;4977112;28;20000;-73
2022/05/24 10:53:09;;;;;;;;;;;;;;;;;;4959652;28;19909;-72
2022/05/24 10:55:36;;;;;;;;;;;;;;;;;;4977572;28;20366;-74
2022/05/24 10:58:02;;;;;;;;;;;;;;;;;;4976915;28;19918;-75
2022/05/24 11:00:27;;;;;;;;;;;;;;;;;;4959553;28;19913;-74
2022/05/24 11:02:53;;;;;;;;;;;;;;;;;;4976857;28;20383;-74
2022/05/24 11:05:20;;;;;;;;;;;;;;;;;;4976867;28;19910;-74
2022/05/24 11:07:46;;;;;;;;;;;;;;;;;;4977253;28;19910;-74
2022/05/24 11:10:12;;;;;;;;;;;;;;;;;;4976711;28;19910;-74
2022/05/24 11:12:37;;;;;;;;;;;;;;;;;;4976697;28;19906;-74
2022/05/24 11:15:03;;;;;;;;;;;;;;;;;;4976824;28;19913;-73
2022/05/24 11:17:29;;;;;;;;;;;;;;;;;;4976639;28;20367;-76
2022/05/24 11:19:55;;;;;;;;;;;;;;;;;;4976771;28;20275;-74
2022/05/24 11:22:21;;;;;;;;;;;;;;;;;;4976543;28;19906;-74
2022/05/24 11:24:47;;;;;;;;;;;;;;;;;;4976410;28;19910;-74
2022/05/24 11:27:13;;;;;;;;;;;;;;;;;;4976616;28;20282;-74
2022/05/24 11:29:39;;;;;;;;;;;;;;;;;;4976603;28;19910;-74
2022/05/24 11:32:06;;;;;;;;;;;;;;;;;;4976902;28;19957;-73
2022/05/24 11:34:32;;;;;;;;;;;;;;;;;;4976051;28;19906;-75
2022/05/24 11:36:58;;;;;;;;;;;;;;;;;;4976462;28;20262;-73
2022/05/24 11:39:24;;;;;;;;;;;;;;;;;;4958826;28;19906;-73
2022/05/24 11:41:50;;;;;;;;;;;;;;;;;;4976120;28;19906;-74
2022/05/24 11:44:16;;;;;;;;;;;;;;;;;;4976088;28;19913;-74
2022/05/24 11:46:44;;;;;;;;;;;;;;;;;;4976024;28;19906;-75
2022/05/24 11:49:10;;;;;;;;;;;;;;;;;;4976449;28;19910;-74
2022/05/24 11:51:37;;;;;;;;;;;;;;;;;;4976184;28;19913;-74
2022/05/24 11:54:03;;;;;;;;;;;;;;;;;;4975884;28;19933;-73
2022/05/24 11:56:29;;;;;;;;;;;;;;;;;;4958453;28;20363;-75
2022/05/24 11:58:55;;;;;;;;;;;;;;;;;;4975826;28;19918;-74
2022/05/24 12:01:21;;;;;;;;;;;;;;;;;;4975785;28;19956;-73
2022/05/24 12:09:44;;;;;;;;;;;;;;;;;;4906731;28;20365;-74
2022/05/24 12:12:10;;;;;;;;;;;;;;;;;;4976210;28;19902;-74
2022/05/24 12:14:36;;;;;;;;;;;;;;;;;;4958132;28;19910;-75
2022/05/24 12:17:02;;;;;;;;;;;;;;;;;;4975568;28;20004;-74
2022/05/24 12:19:28;;;;;;;;;;;;;;;;;;4975741;28;19906;-74
2022/05/24 12:21:54;;;;;;;;;;;;;;;;;;4975408;28;19905;-74
2022/05/24 12:24:20;;;;;;;;;;;;;;;;;;4975416;28;19910;-73
2022/05/24 12:26:46;;;;;;;;;;;;;;;;;;4957791;28;19906;-75
2022/05/24 12:29:13;;;;;;;;;;;;;;;;;;4975234;28;19909;-73
2022/05/24 12:31:39;;;;;;;;;;;;;;;;;;4975316;28;20348;-74
2022/05/24 12:34:06;;;;;;;;;;;;;;;;;;4975770;28;19906;-74
2022/05/24 12:36:32;;;;;;;;;;;;;;;;;;4975466;28;19960;-74
2022/05/24 12:38:58;;;;;;;;;;;;;;;;;;4975165;28;20358;-74
2022/05/24 12:41:25;;;;;;;;;;;;;;;;;;4975176;28;19906;-75
2022/05/24 12:43:51;;;;;;;;;;;;;;;;;;4975674;28;19906;-74
2022/05/24 12:46:17;;;;;;;;;;;;;;;;;;4957236;28;19913;-76
2022/05/24 12:48:43;;;;;;;;;;;;;;;;;;4974482;28;19909;-74
2022/05/24 12:51:09;;;;;;;;;;;;;;;;;;4975240;28;19910;-74
2022/05/24 12:53:35;;;;;;;;;;;;;;;;;;4975265;28;19912;-74
2022/05/24 12:56:02;;;;;;;;;;;;;;;;;;4957667;28;19906;-74
2022/05/24 12:58:28;;;;;;;;;;;;;;;;;;4975056;28;20462;-73
2022/05/24 13:00:54;;;;;;;;;;;;;;;;;;4975454;28;19942;-75
2022/05/24 13:03:22;;;;;;;;;;;;;;;;;;4974955;28;19913;-72
2022/05/24 13:05:48;;;;;;;;;;;;;;;;;;4975483;28;20298;-74
2022/05/24 13:08:14;;;;;;;;;;;;;;;;;;4974787;28;19925;-74
2022/05/24 13:10:40;;;;;;;;;;;;;;;;;;4974848;28;19906;-73
2022/05/24 13:13:06;;;;;;;;;;;;;;;;;;4975348;28;20275;-73
2022/05/24 13:15:32;;;;;;;;;;;;;;;;;;4974691;28;19913;-74
2022/05/24 13:18:02;;;;;;;;;;;;;;;;;;4975019;28;19914;-73
2022/05/24 13:20:28;;;;;;;;;;;;;;;;;;4957388;28;19906;-74
2022/05/24 13:22:54;;;;;;;;;;;;;;;;;;4957331;28;19906;-74
2022/05/24 13:25:20;;;;;;;;;;;;;;;;;;4974676;28;19917;-74
2022/05/24 13:27:45;;;;;;;;;;;;;;;;;;4957294;28;19910;-74
2022/05/24 13:35:41;;;;;;;;;;;;;;;;;;4974667;28;19914;-73
2022/05/24 13:38:06;;;;;;;;;;;;;;;;;;4974538;28;19906;-73
2022/05/24 13:40:32;;;;;;;;;;;;;;;;;;4974560;28;19910;-73
2022/05/24 13:42:58;;;;;;;;;;;;;;;;;;4974809;28;19914;-73
2022/05/24 13:45:24;;;;;;;;;;;;;;;;;;4974770;28;19988;-74
2022/05/24 13:47:52;;;;;;;;;;;;;;;;;;4974480;28;19916;-73
2022/05/24 13:50:18;;;;;;;;;;;;;;;;;;4974500;28;20367;-72
2022/05/24 13:52:44;;;;;;;;;;;;;;;;;;4974459;28;19914;-73
2022/05/24 13:55:10;;;;;;;;;;;;;;;;;;4974681;28;20004;-73
2022/05/24 13:57:36;;;;;;;;;;;;;;;;;;4974240;28;19918;-74
2022/05/24 14:00:02;;;;;;;;;;;;;;;;;;4977973;28;20285;-73
2022/05/24 14:02:28;;;;;;;;;;;;;;;;;;4978009;28;19906;-74
2022/05/24 14:04:54;;;;;;;;;;;;;;;;;;4978502;28;19906;-73
2022/05/24 14:07:20;;;;;;;;;;;;;;;;;;4977804;28;20260;-73
2022/05/24 14:09:46;;;;;;;;;;;;;;;;;;4978135;28;19906;-73
2022/05/24 14:12:13;;;;;;;;;;;;;;;;;;4977835;28;19910;-73
2022/05/24 14:14:40;;;;;;;;;;;;;;;;;;4978028;28;19910;-73
2022/05/24 14:17:08;;;;;;;;;;;;;;;;;;4960249;28;20000;-74
2022/05/24 14:19:34;;;;;;;;;;;;;;;;;;4977718;28;19948;-74
2022/05/24 14:22:00;;;;;;;;;;;;;;;;;;4977896;28;19906;-74
2022/05/24 14:24:27;;;;;;;;;;;;;;;;;;4977577;28;19993;-73
2022/05/24 14:26:55;;;;;;;;;;;;;;;;;;4978107;28;20323;-73
2022/05/24 14:29:21;;;;;;;;;;;;;;;;;;4960046;28;19949;-73
2022/05/24 14:31:47;;;;;;;;;;;;;;;;;;4960100;28;19926;-73
2022/05/24 14:34:12;;;;;;;;;;;;;;;;;;4977731;28;19910;-73
2022/05/24 14:36:38;;;;;;;;;;;;;;;;;;4977341;28;20279;-74
2022/05/24 14:39:04;;;;;;;;;;;;;;;;;;4977286;28;19999;-72
2022/05/24 14:41:30;;;;;;;;;;;;;;;;;;4977591;28;20049;-73
2022/05/24 14:43:59;;;;;;;;;;;;;;;;;;4977512;28;19906;-74
2022/05/24 14:46:25;;;;;;;;;;;;;;;;;;4977158;28;19913;-74
2022/05/24 14:48:53;;;;;;;;;;;;;;;;;;4977053;28;19910;-73
2022/05/24 14:51:19;;;;;;;;;;;;;;;;;;4977074;28;19909;-73
2022/05/24 14:53:45;;;;;;;;;;;;;;;;;;4977388;28;20253;-73
2022/05/24 14:56:11;;;;;;;;;;;;;;;;;;4977279;28;19925;-74
2022/05/24 14:58:37;;;;;;;;;;;;;;;;;;4976993;28;19961;-75
2022/05/24 15:01:03;;;;;;;;;;;;;;;;;;4976869;28;19910;-73
2022/05/24 15:03:28;;;;;;;;;;;;;;;;;;4976976;28;19913;-74
2022/05/24 15:05:54;;;;;;;;;;;;;;;;;;4976846;28;20351;-72
2022/05/24 15:16:35;;;;;;;;;;;;;;;;;;4976795;28;20414;-73
2022/05/24 15:19:01;;;;;;;;;;;;;;;;;;4959203;28;20347;-73
2022/05/24 15:21:27;;;;;;;;;;;;;;;;;;4976552;28;19941;-74
2022/05/24 15:23:54;;;;;;;;;;;;;;;;;;4976761;28;19933;-73
2022/05/24 15:26:20;;;;;;;;;;;;;;;;;;4976463;28;19913;-73
2022/05/24 15:28:51;;;;;;;;;;;;;;;;;;4976364;28;19914;-75
2022/05/24 15:31:17;;;;;;;;;;;;;;;;;;4976972;28;19913;-73
2022/05/24 15:33:43;;;;;;;;;;;;;;;;;;4976634;28;19906;-73
2022/05/24 15:36:10;;;;;;;;;;;;;;;;;;4976231;28;20367;-73
2022/05/24 15:38:36;;;;;;;;;;;;;;;;;;4958615;28;20330;-73
2022/05/24 15:41:02;;;;;;;;;;;;;;;;;;4976069;28;19945;-72
2022/05/24 15:43:28;;;;;;;;;;;;;;;;;;4976074;28;19912;-74
2022/05/24 15:45:55;;;;;;;;;;;;;;;;;;4957442;28;19913;-73
2022/05/24 15:48:21;;;;;;;;;;;;;;;;;;4976272;28;19927;-73
2022/05/24 15:50:46;;;;;;;;;;;;;;;;;;4975988;28;20268;-75
2022/05/24 15:53:12;;;;;;;;;;;;;;;;;;4976559;28;19906;-73
2022/05/24 15:55:38;;;;;;;;;;;;;;;;;;4976135;28;19906;-72
2022/05/24 15:58:04;;;;;;;;;;;;;;;;;;4975687;28;20294;-74
2022/05/24 16:00:30;;;;;;;;;;;;;;;;;;4975881;28;19906;-73
2022/05/24 16:02:56;;;;;;;;;;;;;;;;;;4976113;28;19981;-75
2022/05/24 16:10:51;;;;;;;;;;;;;;;;;;4975732;28;20338;-73
2022/05/24 16:13:17;;;;;;;;;;;;;;;;;;4975625;28;19906;-72
2022/05/24 16:15:44;;;;;;;;;;;;;;;;;;4975714;28;19980;-73
2022/05/24 16:18:10;;;;;;;;;;;;;;;;;;4975482;28;19914;-73
2022/05/24 16:20:35;;;;;;;;;;;;;;;;;;4976046;28;20358;-73
2022/05/24 16:23:01;;;;;;;;;;;;;;;;;;4975557;28;19906;-74
2022/05/24 16:25:27;;;;;;;;;;;;;;;;;;4958056;28;19906;-73
2022/05/24 16:27:53;;;;;;;;;;;;;;;;;;4975536;28;19916;-72
2022/05/24 16:30:20;;;;;;;;;;;;;;;;;;4975312;28;19910;-73
2022/05/24 16:32:46;;;;;;;;;;;;;;;;;;4975897;28;19906;-74
2022/05/24 16:35:12;;;;;;;;;;;;;;;;;;4957928;28;19906;-73
2022/05/24 16:37:38;;;;;;;;;;;;;;;;;;4975456;28;19906;-72
2022/05/24 16:40:04;;;;;;;;;;;;;;;;;;4957904;28;19906;-73
2022/05/24 16:42:30;;;;;;;;;;;;;;;;;;4975460;28;19917;-74
2022/05/24 16:44:55;;;;;;;;;;;;;;;;;;4975132;28;20022;-73
2022/05/24 16:47:21;;;;;;;;;;;;;;;;;;4974248;28;20282;-74
2022/05/24 16:49:47;;;;;;;;;;;;;;;;;;4974565;28;20390;-74
2022/05/24 16:52:13;;;;;;;;;;;;;;;;;;4974590;28;19917;-74
2022/05/24 17:00:13;;;;;;;;;;;;;;;;;;4974463;28;20040;-72
2022/05/24 17:02:39;;;;;;;;;;;;;;;;;;4974912;28;19910;-72
2022/05/24 17:05:05;;;;;;;;;;;;;;;;;;4975121;28;19913;-74
2022/05/24 17:07:31;;;;;;;;;;;;;;;;;;4974784;28;20371;-75
2022/05/24 17:09:57;;;;;;;;;;;;;;;;;;4975153;28;19906;-74
2022/05/24 17:12:23;;;;;;;;;;;;;;;;;;4975084;28;20439;-74
2022/05/24 17:14:49;;;;;;;;;;;;;;;;;;4974869;28;19917;-74
2022/05/24 17:17:15;;;;;;;;;;;;;;;;;;4975249;28;20260;-73
2022/05/24 17:19:41;;;;;;;;;;;;;;;;;;4974752;28;19913;-74
2022/05/24 17:22:07;;;;;;;;;;;;;;;;;;4975303;28;19906;-73
2022/05/24 17:24:34;;;;;;;;;;;;;;;;;;4974986;28;19934;-72
2022/05/24 17:27:00;;;;;;;;;;;;;;;;;;4974733;28;20385;-74
2022/05/24 17:29:26;;;;;;;;;;;;;;;;;;4974685;28;20009;-72
2022/05/24 17:31:52;;;;;;;;;;;;;;;;;;4957266;28;20000;-73
2022/05/24 17:34:18;;;;;;;;;;;;;;;;;;4977247;28;20017;-72
2022/05/24 17:36:43;;;;;;;;;;;;;;;;;;4978419;28;20322;-73
2022/05/24 17:39:09;;;;;;;;;;;;;;;;;;4978401;28;19910;-74